createdAt,value
2023-04-06T00:00:50.722Z,26.35
2023-04-06T00:03:17.687Z,23.85
2023-04-06T00:05:45.165Z,32.88
2023-04-06T00:08:12.059Z,29.75
2023-04-06T00:10:39.418Z,30.83
2023-04-06T00:13:07.558Z,27.73
2023-04-06T00:15:35.734Z,25.48
2023-04-06T00:18:02.868Z,28.42
2023-04-06T00:20:30.358Z,33.80
2023-04-06T00:22:57.058Z,29.60
2023-04-06T00:25:24.386Z,36.08
2023-04-06T00:27:51.039Z,32.45
2023-04-06T00:30:18.533Z,29.42
2023-04-06T00:32:45.371Z,34.63
2023-04-06T00:35:12.780Z,35.65
2023-04-06T00:37:39.576Z,29.95
2023-04-06T00:40:07.580Z,42.13
2023-04-06T00:42:34.263Z,39.17
2023-04-06T00:45:02.953Z,39.88
2023-04-06T00:47:29.826Z,34.30
2023-04-06T00:49:58.118Z,32.13
2023-04-06T00:52:24.891Z,37.45
2023-04-06T00:54:53.548Z,34.72
2023-04-06T00:57:22.028Z,32.05
2023-04-06T00:59:55.036Z,31.52
2023-04-06T01:02:22.074Z,32.40
2023-04-06T01:04:53.755Z,34.42
2023-04-06T01:07:28.321Z,34.83
2023-04-06T01:10:10.182Z,34.88
2023-04-06T01:12:39.610Z,37.92
2023-04-06T01:15:14.393Z,42.83
2023-04-06T01:17:43.720Z,37.88
2023-04-06T01:20:15.873Z,34.85
2023-04-06T01:22:43.421Z,38.45
2023-04-06T01:25:12.599Z,36.92
2023-04-06T01:27:50.782Z,35.50
2023-04-06T01:30:41.440Z,35.70
2023-04-06T01:33:16.868Z,33.60
2023-04-06T01:36:16.461Z,41.00
2023-04-06T01:38:46.548Z,34.63
2023-04-06T01:41:16.008Z,34.33
2023-04-06T01:43:49.173Z,36.13
2023-04-06T01:46:16.545Z,34.10
2023-04-06T01:48:45.460Z,34.90
2023-04-06T01:51:35.924Z,35.90
2023-04-06T01:54:06.622Z,39.33
2023-04-06T01:56:53.457Z,35.38
2023-04-06T01:59:34.023Z,35.00
2023-04-06T02:02:05.798Z,45.33
2023-04-06T02:04:35.206Z,37.25
2023-04-06T02:07:09.585Z,38.53
2023-04-06T02:09:37.419Z,37.17
2023-04-06T02:12:07.323Z,64.43
2023-04-06T02:14:35.236Z,90.78
2023-04-06T02:17:01.959Z,103.50
2023-04-06T02:19:29.286Z,109.53
2023-04-06T02:21:56.510Z,101.60
2023-04-06T02:24:23.872Z,113.30
2023-04-06T02:26:50.782Z,112.97
2023-04-06T02:29:18.250Z,121.45
2023-04-06T02:31:45.362Z,127.38
2023-04-06T02:34:18.700Z,109.70
2023-04-06T02:36:49.774Z,109.75
2023-04-06T02:39:16.685Z,102.80
2023-04-06T02:41:44.116Z,107.22
2023-04-06T02:44:12.408Z,96.70
2023-04-06T02:46:44.337Z,108.18
2023-04-06T02:49:11.201Z,100.60
2023-04-06T02:51:38.780Z,91.32
2023-04-06T02:54:17.140Z,93.50
2023-04-06T02:56:45.040Z,101.95
2023-04-06T02:59:12.408Z,85.43
2023-04-06T03:01:44.448Z,56.40
2023-04-06T03:04:11.756Z,70.15
2023-04-06T03:06:39.713Z,75.05
2023-04-06T03:09:16.528Z,69.78
2023-04-06T03:11:45.045Z,56.35
2023-04-06T03:14:12.361Z,62.75
2023-04-06T03:16:39.377Z,55.88
2023-04-06T03:19:06.688Z,47.83
2023-04-06T03:21:36.129Z,45.47
2023-04-06T03:24:03.018Z,46.80
2023-04-06T03:26:30.326Z,41.10
2023-04-06T03:29:01.525Z,43.40
2023-04-06T03:31:31.951Z,47.80
2023-04-06T03:34:19.667Z,54.92
2023-04-06T03:36:48.413Z,47.25
2023-04-06T03:39:21.365Z,49.95
2023-04-06T03:41:48.839Z,46.60
2023-04-06T03:44:30.813Z,42.17
2023-04-06T03:46:58.222Z,42.42
2023-04-06T03:49:25.825Z,40.30
2023-04-06T03:51:54.419Z,42.53
2023-04-06T03:54:21.170Z,41.00
2023-04-06T03:56:48.484Z,41.90
2023-04-06T03:59:15.969Z,43.97
2023-04-06T04:01:43.564Z,48.33
2023-04-06T04:04:11.652Z,42.47
2023-04-06T04:06:38.996Z,43.05
2023-04-06T04:09:07.525Z,53.78
2023-04-06T04:11:34.888Z,62.53
2023-04-06T04:14:01.651Z,59.45
2023-04-06T04:16:29.661Z,56.15
2023-04-06T04:18:58.930Z,57.25
2023-04-06T04:21:26.991Z,44.67
2023-04-06T04:23:54.650Z,43.55
2023-04-06T04:26:22.221Z,41.25
2023-04-06T04:28:48.936Z,38.13
2023-04-06T04:31:18.632Z,45.40
2023-04-06T04:33:47.563Z,50.60
2023-04-06T04:36:22.632Z,59.92
2023-04-06T04:38:49.335Z,55.97
2023-04-06T04:41:16.668Z,68.13
2023-04-06T04:43:44.732Z,54.80
2023-04-06T04:46:13.677Z,51.38
2023-04-06T04:48:42.968Z,46.50
2023-04-06T04:51:10.270Z,48.35
2023-04-06T04:53:55.051Z,45.15
2023-04-06T04:56:28.709Z,49.63
2023-04-06T04:59:02.313Z,46.55
2023-04-06T05:01:38.029Z,42.83
2023-04-06T05:04:14.674Z,42.38
2023-04-06T05:06:42.043Z,40.20
2023-04-06T05:09:09.070Z,40.88
2023-04-06T05:11:37.096Z,35.20
2023-04-06T05:14:03.906Z,48.88
2023-04-06T05:16:31.330Z,40.58
2023-04-06T05:18:58.170Z,32.33
2023-04-06T05:21:31.554Z,37.88
2023-04-06T05:24:03.470Z,41.65
2023-04-06T05:26:32.435Z,45.03
2023-04-06T05:29:04.869Z,43.63
2023-04-06T05:31:36.133Z,36.95
2023-04-06T05:34:02.890Z,38.05
2023-04-06T05:36:37.103Z,46.78
2023-04-06T05:39:10.089Z,38.15
2023-04-06T05:41:50.865Z,41.35
2023-04-06T05:44:26.389Z,35.72
2023-04-06T05:47:03.179Z,39.63
2023-04-06T05:49:30.468Z,49.63
2023-04-06T05:51:57.780Z,34.55
2023-04-06T05:54:25.020Z,36.17
2023-04-06T05:59:25.749Z,31.73
2023-04-06T06:01:54.332Z,28.58
2023-04-06T06:04:22.511Z,29.98
2023-04-06T06:06:53.395Z,33.83
2023-04-06T06:09:26.969Z,32.08
2023-04-06T06:12:11.475Z,29.08
2023-04-06T06:14:40.292Z,27.67
2023-04-06T06:17:07.975Z,34.75
2023-04-06T06:19:34.865Z,27.70
2023-04-06T06:22:06.286Z,24.35
2023-04-06T06:24:36.118Z,24.70
2023-04-06T06:27:03.521Z,22.73
2023-04-06T06:29:33.049Z,20.17
2023-04-06T06:32:01.511Z,23.90
2023-04-06T06:34:28.487Z,22.88
2023-04-06T06:36:58.285Z,30.23
2023-04-06T06:39:25.903Z,28.63
2023-04-06T06:41:55.653Z,22.67
2023-04-06T06:44:40.268Z,29.10
2023-04-06T06:47:07.587Z,28.67
2023-04-06T06:49:34.412Z,25.00
2023-04-06T06:52:01.790Z,27.27
2023-04-06T06:54:28.545Z,23.35
2023-04-06T06:56:56.964Z,32.20
2023-04-06T06:59:24.001Z,23.70
2023-04-06T07:01:51.693Z,28.02
2023-04-06T07:04:18.424Z,26.15
2023-04-06T07:06:45.704Z,32.05
2023-04-06T07:09:12.414Z,26.88
2023-04-06T07:11:40.621Z,26.27
2023-04-06T07:14:07.810Z,27.60
2023-04-06T07:16:35.470Z,24.92
2023-04-06T07:19:02.552Z,25.95
2023-04-06T07:21:30.144Z,26.90
2023-04-06T07:23:57.099Z,25.33
2023-04-06T07:26:24.444Z,22.85
2023-04-06T07:28:51.096Z,26.52
2023-04-06T07:31:19.488Z,25.92
2023-04-06T07:33:46.488Z,25.13
2023-04-06T07:36:14.148Z,22.27
2023-04-06T07:38:40.917Z,22.20
2023-04-06T07:41:08.325Z,24.08
2023-04-06T07:43:35.520Z,25.50
2023-04-06T07:46:03.358Z,21.92
2023-04-06T07:48:30.510Z,24.23
2023-04-06T07:51:05.148Z,22.38
2023-04-06T07:53:35.655Z,27.40
2023-04-06T07:56:02.942Z,25.92
2023-04-06T07:58:29.623Z,30.15
2023-04-06T08:00:58.933Z,22.42
2023-04-06T08:03:26.614Z,26.90
2023-04-06T08:05:54.209Z,25.48
2023-04-06T08:08:22.148Z,27.00
2023-04-06T08:10:49.937Z,31.75
2023-04-06T08:13:17.228Z,27.10
2023-04-06T08:15:45.188Z,24.55
2023-04-06T08:18:12.095Z,30.35
2023-04-06T08:20:40.036Z,22.30
2023-04-06T08:23:07.592Z,29.13
2023-04-06T08:25:37.943Z,23.95
2023-04-06T08:28:04.892Z,22.75
2023-04-06T08:30:32.033Z,24.85
2023-04-06T08:32:58.739Z,26.58
2023-04-06T08:35:27.026Z,25.98
2023-04-06T08:37:53.799Z,26.15
2023-04-06T08:40:20.967Z,33.33
2023-04-06T08:42:52.919Z,28.30
2023-04-06T08:45:22.112Z,27.02
2023-04-06T08:47:53.348Z,26.42
2023-04-06T08:50:21.957Z,25.58
2023-04-06T08:52:49.609Z,24.77
2023-04-06T08:55:17.621Z,32.15
2023-04-06T08:57:45.576Z,29.50
2023-04-06T09:00:13.756Z,25.65
2023-04-06T09:02:42.426Z,25.77
2023-04-06T09:05:11.272Z,27.98
2023-04-06T09:07:38.834Z,26.30
2023-04-06T09:10:07.478Z,29.27
2023-04-06T09:12:35.541Z,29.50
2023-04-06T09:15:03.377Z,26.92
2023-04-06T09:17:34.757Z,22.77
2023-04-06T09:20:04.231Z,28.33
2023-04-06T09:22:41.354Z,30.17
2023-04-06T09:25:10.289Z,25.65
2023-04-06T09:27:38.363Z,31.35
2023-04-06T09:30:13.898Z,29.13
2023-04-06T09:32:51.938Z,26.42
2023-04-06T09:35:23.521Z,26.80
2023-04-06T09:37:52.494Z,25.90
2023-04-06T09:40:20.393Z,29.83
2023-04-06T09:42:48.167Z,26.35
2023-04-06T09:45:16.488Z,33.47
2023-04-06T09:47:47.485Z,31.52
2023-04-06T09:50:17.102Z,28.33
2023-04-06T09:52:49.429Z,32.05
2023-04-06T09:55:25.804Z,25.20
2023-04-06T09:58:00.835Z,33.58
2023-04-06T10:00:29.814Z,30.42
2023-04-06T10:03:01.926Z,28.60
2023-04-06T10:05:41.048Z,29.15
2023-04-06T10:08:11.098Z,31.27
2023-04-06T10:10:39.002Z,32.75
2023-04-06T10:13:06.587Z,32.90
2023-04-06T10:15:34.838Z,32.03
2023-04-06T10:18:02.963Z,34.58
2023-04-06T10:20:50.463Z,34.03
2023-04-06T10:23:42.470Z,36.83
2023-04-06T10:26:15.085Z,38.17
2023-04-06T10:28:44.226Z,31.58
2023-04-06T10:31:11.257Z,34.40
2023-04-06T10:33:37.935Z,30.10
2023-04-06T10:36:15.801Z,34.28
2023-04-06T10:38:43.355Z,33.10
2023-04-06T10:41:12.794Z,31.27
2023-04-06T10:43:41.527Z,33.22
2023-04-06T10:46:11.124Z,37.05
2023-04-06T10:48:48.683Z,37.42
2023-04-06T10:51:17.633Z,40.88
2023-04-06T10:53:49.548Z,30.98
2023-04-06T10:56:18.242Z,33.25
2023-04-06T10:58:49.718Z,27.65
2023-04-06T11:01:18.704Z,33.78
2023-04-06T11:03:50.594Z,31.35
2023-04-06T11:06:25.495Z,27.35
2023-04-06T11:08:53.723Z,31.58
2023-04-06T11:11:22.853Z,33.20
2023-04-06T11:13:55.255Z,31.05
2023-04-06T11:16:26.088Z,31.20
2023-04-06T11:18:57.796Z,34.40
2023-04-06T11:21:44.342Z,35.00
2023-04-06T11:24:17.102Z,32.60
2023-04-06T11:26:57.962Z,26.33
2023-04-06T11:29:29.817Z,22.77
2023-04-06T11:32:04.363Z,25.92
2023-04-06T11:34:38.278Z,25.50
2023-04-06T11:37:10.394Z,21.35
2023-04-06T11:39:52.123Z,24.33
2023-04-06T11:42:26.291Z,23.00
2023-04-06T11:44:55.753Z,25.77
2023-04-06T11:47:34.285Z,19.63
2023-04-06T11:50:15.076Z,18.33
2023-04-06T11:52:42.509Z,22.83
2023-04-06T11:55:17.706Z,18.77
2023-04-06T11:57:44.716Z,23.65
2023-04-06T12:00:12.499Z,18.45
2023-04-06T12:02:40.337Z,28.10
2023-04-06T12:05:09.621Z,19.73
2023-04-06T12:07:37.058Z,18.10
2023-04-06T12:10:05.503Z,22.05
2023-04-06T12:12:32.346Z,15.35
2023-04-06T12:15:00.145Z,15.10
2023-04-06T12:17:26.891Z,13.73
2023-04-06T12:19:54.340Z,13.85
2023-04-06T12:22:21.069Z,16.83
2023-04-06T12:24:48.397Z,15.57
2023-04-06T12:27:15.434Z,14.68
2023-04-06T12:29:44.526Z,14.57
2023-04-06T12:32:11.269Z,16.30
2023-04-06T12:34:39.582Z,13.52
2023-04-06T12:37:06.950Z,15.55
2023-04-06T12:39:34.545Z,13.30
2023-04-06T12:42:02.377Z,15.32
2023-04-06T12:44:30.804Z,16.63
2023-04-06T12:46:57.665Z,17.70
2023-04-06T12:49:25.099Z,11.23
2023-04-06T12:51:51.878Z,15.07
2023-04-06T12:54:18.969Z,17.45
2023-04-06T12:56:45.806Z,15.98
2023-04-06T12:59:13.287Z,16.35
2023-04-06T13:01:40.248Z,17.30
2023-04-06T13:04:07.619Z,15.68
2023-04-06T13:06:34.273Z,16.70
2023-04-06T13:09:01.917Z,16.05
2023-04-06T13:11:28.981Z,19.20
2023-04-06T13:13:55.822Z,14.63
2023-04-06T13:16:22.618Z,18.10
2023-04-06T13:18:49.418Z,19.88
2023-04-06T13:21:17.205Z,18.83
2023-04-06T13:23:44.976Z,19.58
2023-04-06T13:26:12.127Z,22.08
2023-04-06T13:28:39.993Z,18.17
2023-04-06T13:31:07.722Z,18.98
2023-04-06T13:33:35.394Z,21.10
2023-04-06T13:36:02.187Z,23.30
2023-04-06T13:38:31.197Z,22.10
2023-04-06T13:40:58.507Z,24.02
2023-04-06T13:43:27.393Z,18.85
2023-04-06T13:45:56.000Z,21.75
2023-04-06T13:48:23.563Z,21.30
2023-04-06T13:50:50.473Z,23.20
2023-04-06T13:53:17.500Z,22.13
2023-04-06T13:55:45.307Z,18.83
2023-04-06T13:58:12.484Z,20.88
2023-04-06T14:00:39.836Z,18.42
2023-04-06T14:03:07.223Z,19.30
2023-04-06T14:05:34.721Z,21.45
2023-04-06T14:08:02.507Z,23.65
2023-04-06T14:10:29.839Z,20.27
2023-04-06T14:15:44.357Z,24.25
2023-04-06T14:18:11.663Z,22.20
2023-04-06T14:20:38.299Z,22.80
2023-04-06T14:23:05.198Z,24.00
2023-04-06T14:25:33.148Z,22.25
2023-04-06T14:27:59.819Z,24.00
2023-04-06T14:30:26.585Z,26.05
2023-04-06T14:32:53.320Z,22.35
2023-04-06T14:35:20.166Z,24.38
2023-04-06T14:37:47.984Z,24.20
2023-04-06T14:40:14.599Z,24.13
2023-04-06T14:42:41.584Z,23.98
2023-04-06T14:45:08.895Z,26.20
2023-04-06T14:47:35.610Z,22.85
2023-04-06T14:50:02.926Z,24.17
2023-04-06T14:52:31.363Z,23.88
2023-04-06T14:54:59.270Z,24.90
2023-04-06T14:57:25.889Z,26.50
2023-04-06T14:59:55.583Z,29.17
2023-04-06T15:02:22.338Z,30.67
2023-04-06T15:04:49.321Z,28.75
2023-04-06T15:07:16.310Z,26.02
2023-04-06T15:09:43.256Z,25.65
2023-04-06T15:12:09.819Z,27.75
2023-04-06T15:14:36.836Z,32.25
2023-04-06T15:17:03.406Z,28.08
2023-04-06T15:19:30.517Z,24.15
2023-04-06T15:21:58.506Z,26.33
2023-04-06T15:24:26.820Z,26.45
2023-04-06T15:26:53.444Z,27.73
2023-04-06T15:29:20.437Z,27.75
2023-04-06T15:31:47.181Z,34.63
2023-04-06T15:34:14.165Z,25.92
2023-04-06T15:36:40.782Z,27.20
2023-04-06T15:39:10.076Z,27.40
2023-04-06T15:41:37.268Z,24.38
2023-04-06T15:44:04.941Z,44.03
2023-04-06T15:46:31.750Z,31.45
2023-04-06T15:48:58.381Z,32.88
2023-04-06T15:51:26.069Z,30.63
2023-04-06T15:53:53.383Z,26.25
2023-04-06T15:56:20.841Z,28.55
2023-04-06T15:58:48.174Z,32.72
2023-04-06T16:01:16.546Z,31.48
2023-04-06T16:03:44.551Z,37.55
2023-04-06T16:06:12.425Z,30.42
2023-04-06T16:08:40.765Z,33.55
2023-04-06T16:11:07.975Z,36.42
2023-04-06T16:13:36.233Z,34.38
2023-04-06T16:16:03.863Z,31.65
2023-04-06T16:18:33.079Z,26.83
2023-04-06T16:21:00.894Z,32.35
2023-04-06T16:23:27.891Z,31.80
2023-04-06T16:25:54.572Z,34.80
2023-04-06T16:28:23.432Z,33.40
2023-04-06T16:30:50.228Z,29.02
2023-04-06T16:33:19.461Z,33.30
2023-04-06T16:35:46.739Z,32.47
2023-04-06T16:38:15.046Z,31.92
2023-04-06T16:40:42.046Z,33.47
2023-04-06T16:43:10.140Z,31.92
2023-04-06T16:45:38.036Z,33.67
2023-04-06T16:48:06.334Z,32.83
2023-04-06T16:50:33.329Z,32.60
2023-04-06T16:53:00.454Z,34.60
2023-04-06T16:55:27.073Z,28.08
2023-04-06T16:57:57.179Z,39.95
2023-04-06T17:00:24.029Z,30.42
2023-04-06T17:02:51.631Z,37.72
2023-04-06T17:05:24.440Z,39.80
2023-04-06T17:07:52.204Z,39.55
2023-04-06T17:10:24.054Z,37.17
2023-04-06T17:13:00.473Z,45.78
2023-04-06T17:15:29.149Z,38.22
2023-04-06T17:17:56.755Z,36.13
2023-04-06T17:20:23.457Z,40.97
2023-04-06T17:22:51.354Z,36.20
2023-04-06T17:25:18.098Z,39.88
2023-04-06T17:27:44.815Z,40.53
2023-04-06T17:30:12.631Z,37.75
2023-04-06T17:32:41.420Z,37.63
2023-04-06T17:35:09.797Z,35.35
2023-04-06T17:37:38.096Z,34.05
2023-04-06T17:40:06.535Z,33.38
2023-04-06T17:42:33.821Z,36.25
2023-04-06T17:45:01.002Z,33.60
2023-04-06T17:47:32.417Z,32.25
2023-04-06T17:50:00.465Z,41.38
2023-04-06T17:52:28.805Z,38.70
2023-04-06T17:54:56.479Z,42.20
2023-04-06T17:57:24.089Z,44.13
2023-04-06T17:59:50.951Z,44.30
2023-04-06T18:02:20.247Z,43.20
2023-04-06T18:04:47.536Z,53.35
2023-04-06T18:07:14.917Z,42.22
2023-04-06T18:09:41.879Z,40.72
2023-04-06T18:12:09.195Z,44.10
2023-04-06T18:14:36.482Z,41.63
2023-04-06T18:17:03.752Z,40.53
2023-04-06T18:19:32.101Z,42.33
2023-04-06T18:21:59.358Z,45.72
2023-04-06T18:24:40.552Z,40.45
2023-04-06T18:27:10.743Z,44.30
2023-04-06T18:29:37.418Z,44.53
2023-04-06T18:32:06.309Z,45.72
2023-04-06T18:34:33.568Z,47.53
2023-04-06T18:37:01.816Z,41.83
2023-04-06T18:39:29.022Z,40.83
2023-04-06T18:41:56.882Z,39.53
2023-04-06T18:44:23.503Z,38.25
2023-04-06T18:46:54.368Z,38.38
2023-04-06T18:49:21.968Z,39.97
2023-04-06T18:51:49.273Z,36.88
2023-04-06T18:54:15.991Z,38.00
2023-04-06T18:56:42.615Z,36.10
2023-04-06T18:59:10.591Z,32.83
2023-04-06T19:01:43.679Z,34.28
2023-04-06T19:06:38.749Z,31.92
2023-04-06T19:09:05.454Z,26.20
2023-04-06T19:11:32.548Z,27.52
2023-04-06T19:13:59.244Z,26.45
2023-04-06T19:16:27.568Z,24.52
2023-04-06T19:18:54.888Z,22.15
2023-04-06T19:21:24.464Z,22.15
2023-04-06T19:23:56.954Z,19.92
2023-04-06T19:28:52.224Z,20.30
2023-04-06T19:31:20.218Z,22.85
2023-04-06T19:33:47.455Z,21.60
2023-04-06T19:36:16.183Z,20.08
2023-04-06T19:38:43.045Z,21.02
2023-04-06T19:41:10.294Z,21.48
2023-04-06T19:43:37.060Z,18.70
2023-04-06T19:46:05.025Z,23.08
2023-04-06T19:48:33.681Z,18.98
2023-04-06T19:51:01.057Z,22.77
2023-04-06T19:53:27.735Z,27.02
2023-04-06T19:55:54.681Z,26.67
2023-04-06T19:58:21.489Z,26.45
2023-04-06T20:00:48.463Z,29.02
2023-04-06T20:03:15.676Z,23.00
2023-04-06T20:05:42.663Z,22.77
2023-04-06T20:08:09.276Z,24.10
2023-04-06T20:10:36.824Z,16.40
2023-04-06T20:13:03.531Z,17.70
2023-04-06T20:15:30.837Z,22.05
2023-04-06T20:17:58.136Z,19.75
2023-04-06T20:20:24.915Z,18.17
2023-04-06T20:22:52.150Z,17.70
2023-04-06T20:25:19.766Z,17.92
2023-04-06T20:27:47.062Z,16.92
2023-04-06T20:30:15.060Z,17.30
2023-04-06T20:32:42.821Z,19.13
2023-04-06T20:35:09.690Z,20.90
2023-04-06T20:37:38.025Z,20.30
2023-04-06T20:40:05.406Z,16.90
2023-04-06T20:42:32.630Z,16.88
2023-04-06T20:44:59.406Z,17.63
2023-04-06T20:47:27.381Z,23.10
2023-04-06T20:49:54.382Z,17.33
2023-04-06T20:52:21.746Z,21.27
2023-04-06T20:54:50.412Z,16.23
2023-04-06T20:57:17.726Z,18.85
2023-04-06T20:59:45.133Z,17.52
2023-04-06T21:02:12.846Z,18.08
2023-04-06T21:04:39.818Z,18.92
2023-04-06T21:07:08.171Z,17.00
2023-04-06T21:09:39.337Z,17.60
2023-04-06T21:12:07.777Z,24.23
2023-04-06T21:14:34.452Z,21.88
2023-04-06T21:17:01.985Z,22.38
2023-04-06T21:19:28.678Z,19.75
2023-04-06T21:21:56.249Z,20.73
2023-04-06T21:24:22.936Z,19.20
2023-04-06T21:26:50.305Z,21.67
2023-04-06T21:29:17.089Z,22.65
2023-04-06T21:31:44.379Z,22.77
2023-04-06T21:34:11.929Z,22.45
2023-04-06T21:36:39.880Z,19.83
2023-04-06T21:39:06.799Z,23.33
2023-04-06T21:41:34.869Z,21.67
2023-04-06T21:44:01.710Z,24.38
2023-04-06T21:46:29.087Z,25.48
2023-04-06T21:48:55.923Z,22.85
2023-04-06T21:51:23.619Z,25.60
2023-04-06T21:53:52.651Z,23.77
2023-04-06T21:56:22.328Z,25.88
2023-04-06T21:58:49.899Z,24.98
2023-04-06T22:01:17.902Z,23.58
2023-04-06T22:03:46.352Z,28.15
2023-04-06T22:06:14.173Z,24.27
2023-04-06T22:08:41.022Z,26.73
2023-04-06T22:11:11.498Z,24.92
2023-04-06T22:13:39.040Z,23.90
2023-04-06T22:16:06.946Z,27.73
2023-04-06T22:18:34.692Z,29.92
2023-04-06T22:21:06.239Z,30.17
2023-04-06T22:23:33.247Z,24.63
2023-04-06T22:26:00.728Z,28.73
2023-04-06T22:28:27.431Z,29.48
2023-04-06T22:30:54.753Z,34.88
2023-04-06T22:33:21.374Z,27.55
2023-04-06T22:35:48.682Z,29.83
2023-04-06T22:38:15.582Z,32.83
2023-04-06T22:40:42.864Z,32.30
2023-04-06T22:43:10.079Z,33.40
2023-04-06T22:45:37.329Z,35.17
2023-04-06T22:48:04.142Z,32.25
2023-04-06T22:50:31.764Z,31.67
2023-04-06T22:52:58.492Z,40.40
2023-04-06T22:55:26.261Z,38.00
2023-04-06T22:57:53.002Z,34.45
2023-04-06T23:00:20.365Z,34.63
2023-04-06T23:02:47.216Z,34.03
2023-04-06T23:05:14.563Z,35.95
2023-04-06T23:07:41.218Z,35.38
2023-04-06T23:10:08.990Z,35.47
2023-04-06T23:12:35.598Z,40.15
2023-04-06T23:15:02.950Z,38.47
2023-04-06T23:17:29.661Z,37.95
2023-04-06T23:19:57.062Z,42.42
2023-04-06T23:22:23.742Z,40.80
2023-04-06T23:24:51.034Z,43.95
2023-04-06T23:27:17.667Z,42.92
2023-04-06T23:29:45.004Z,44.58
2023-04-06T23:32:11.670Z,46.33
2023-04-06T23:34:39.126Z,51.33
2023-04-06T23:37:06.144Z,47.25
2023-04-06T23:39:33.620Z,53.40
2023-04-06T23:42:01.421Z,47.65
2023-04-06T23:44:31.765Z,53.90
2023-04-06T23:46:58.547Z,48.13
2023-04-06T23:49:25.772Z,50.83
2023-04-06T23:51:52.351Z,49.63
2023-04-06T23:54:19.650Z,51.95
2023-04-06T23:56:46.763Z,53.50
2023-04-06T23:59:13.768Z,59.72
